sensor_id;sensor_type;location;lat;lon;timestamp;P1;durP1;ratioP1;P2;durP2;ratioP2
12908;SDS011;6522;49.622;6.126;2022-12-07T00:02:29;19.50;;;14.50;;
12908;SDS011;6522;49.622;6.126;2022-12-07T00:05:15;17.35;;;11.50;;
12908;SDS011;6522;49.622;6.126;2022-12-07T00:08:02;18.27;;;12.00;;
12908;SDS011;6522;49.622;6.126;2022-12-07T00:10:49;18.67;;;13.40;;
12908;SDS011;6522;49.622;6.126;2022-12-07T00:13:36;19.30;;;14.80;;
12908;SDS011;6522;49.622;6.126;2022-12-07T00:16:23;18.85;;;15.18;;
12908;SDS011;6522;49.622;6.126;2022-12-07T00:19:10;19.42;;;14.48;;
12908;SDS011;6522;49.622;6.126;2022-12-07T00:21:56;17.90;;;15.98;;
12908;SDS011;6522;49.622;6.126;2022-12-07T00:24:42;17.12;;;13.73;;
12908;SDS011;6522;49.622;6.126;2022-12-07T00:27:29;20.70;;;13.23;;
12908;SDS011;6522;49.622;6.126;2022-12-07T00:30:15;18.17;;;13.13;;
12908;SDS011;6522;49.622;6.126;2022-12-07T00:33:02;20.00;;;15.77;;
12908;SDS011;6522;49.622;6.126;2022-12-07T00:35:54;22.73;;;14.73;;
12908;SDS011;6522;49.622;6.126;2022-12-07T00:38:36;17.80;;;15.90;;
12908;SDS011;6522;49.622;6.126;2022-12-07T00:41:23;17.55;;;15.48;;
12908;SDS011;6522;49.622;6.126;2022-12-07T00:44:09;21.45;;;16.77;;
12908;SDS011;6522;49.622;6.126;2022-12-07T00:46:56;23.15;;;13.32;;
12908;SDS011;6522;49.622;6.126;2022-12-07T00:49:42;25.30;;;14.07;;
12908;SDS011;6522;49.622;6.126;2022-12-07T00:52:29;20.05;;;14.43;;
12908;SDS011;6522;49.622;6.126;2022-12-07T00:55:15;22.65;;;17.62;;
12908;SDS011;6522;49.622;6.126;2022-12-07T00:58:02;24.20;;;16.77;;
12908;SDS011;6522;49.622;6.126;2022-12-07T01:00:49;23.48;;;17.23;;
12908;SDS011;6522;49.622;6.126;2022-12-07T01:03:36;22.45;;;17.20;;
12908;SDS011;6522;49.622;6.126;2022-12-07T01:06:23;25.67;;;18.40;;
12908;SDS011;6522;49.622;6.126;2022-12-07T01:09:09;26.62;;;21.27;;
12908;SDS011;6522;49.622;6.126;2022-12-07T01:11:56;27.95;;;19.87;;
12908;SDS011;6522;49.622;6.126;2022-12-07T01:14:42;28.25;;;19.60;;
12908;SDS011;6522;49.622;6.126;2022-12-07T01:17:29;27.20;;;19.35;;
12908;SDS011;6522;49.622;6.126;2022-12-07T01:20:16;26.00;;;20.55;;
12908;SDS011;6522;49.622;6.126;2022-12-07T01:23:03;30.37;;;20.25;;
12908;SDS011;6522;49.622;6.126;2022-12-07T01:25:56;30.23;;;21.35;;
12908;SDS011;6522;49.622;6.126;2022-12-07T01:28:42;29.50;;;20.15;;
12908;SDS011;6522;49.622;6.126;2022-12-07T01:31:29;31.23;;;22.35;;
12908;SDS011;6522;49.622;6.126;2022-12-07T01:34:15;33.28;;;21.75;;
12908;SDS011;6522;49.622;6.126;2022-12-07T01:37:02;32.70;;;22.83;;
12908;SDS011;6522;49.622;6.126;2022-12-07T01:39:49;30.95;;;17.70;;
12908;SDS011;6522;49.622;6.126;2022-12-07T01:42:35;32.60;;;18.17;;
12908;SDS011;6522;49.622;6.126;2022-12-07T01:48:19;33.90;;;21.35;;
12908;SDS011;6522;49.622;6.126;2022-12-07T01:51:05;43.47;;;23.42;;
12908;SDS011;6522;49.622;6.126;2022-12-07T01:53:51;32.40;;;23.42;;
12908;SDS011;6522;49.622;6.126;2022-12-07T01:56:38;36.60;;;21.92;;
12908;SDS011;6522;49.622;6.126;2022-12-07T01:59:25;38.03;;;23.17;;
12908;SDS011;6522;49.622;6.126;2022-12-07T02:02:47;38.35;;;22.52;;
12908;SDS011;6522;49.622;6.126;2022-12-07T02:05:05;35.88;;;19.25;;
12908;SDS011;6522;49.622;6.126;2022-12-07T02:07:52;35.33;;;20.20;;
12908;SDS011;6522;49.622;6.126;2022-12-07T02:10:38;36.20;;;17.65;;
12908;SDS011;6522;49.622;6.126;2022-12-07T02:13:26;37.85;;;22.50;;
12908;SDS011;6522;49.622;6.126;2022-12-07T02:19:18;35.08;;;19.00;;
12908;SDS011;6522;49.622;6.126;2022-12-07T02:22:07;35.75;;;20.08;;
12908;SDS011;6522;49.622;6.126;2022-12-07T02:27:58;40.55;;;24.45;;
12908;SDS011;6522;49.622;6.126;2022-12-07T02:30:43;38.42;;;25.80;;
12908;SDS011;6522;49.622;6.126;2022-12-07T02:33:40;37.03;;;25.08;;
12908;SDS011;6522;49.622;6.126;2022-12-07T02:36:17;40.80;;;25.05;;
12908;SDS011;6522;49.622;6.126;2022-12-07T02:39:06;37.83;;;24.05;;
12908;SDS011;6522;49.622;6.126;2022-12-07T02:41:54;38.55;;;22.92;;
12908;SDS011;6522;49.622;6.126;2022-12-07T02:44:36;43.42;;;25.88;;
12908;SDS011;6522;49.622;6.126;2022-12-07T02:47:23;48.70;;;24.75;;
12908;SDS011;6522;49.622;6.126;2022-12-07T02:50:10;38.90;;;23.95;;
12908;SDS011;6522;49.622;6.126;2022-12-07T02:52:56;45.08;;;26.50;;
12908;SDS011;6522;49.622;6.126;2022-12-07T02:55:43;44.17;;;25.60;;
12908;SDS011;6522;49.622;6.126;2022-12-07T02:58:32;42.22;;;25.98;;
12908;SDS011;6522;49.622;6.126;2022-12-07T03:01:27;43.30;;;26.37;;
12908;SDS011;6522;49.622;6.126;2022-12-07T03:04:24;43.38;;;20.62;;
12908;SDS011;6522;49.622;6.126;2022-12-07T03:07:11;32.15;;;19.33;;
12908;SDS011;6522;49.622;6.126;2022-12-07T03:09:59;47.08;;;24.73;;
12908;SDS011;6522;49.622;6.126;2022-12-07T03:15:30;44.72;;;28.80;;
12908;SDS011;6522;49.622;6.126;2022-12-07T03:18:15;40.72;;;24.17;;
12908;SDS011;6522;49.622;6.126;2022-12-07T03:21:02;45.88;;;27.73;;
12908;SDS011;6522;49.622;6.126;2022-12-07T03:23:48;43.13;;;24.65;;
12908;SDS011;6522;49.622;6.126;2022-12-07T03:26:34;44.70;;;25.40;;
12908;SDS011;6522;49.622;6.126;2022-12-07T03:29:44;45.25;;;27.42;;
12908;SDS011;6522;49.622;6.126;2022-12-07T03:32:15;42.83;;;24.02;;
12908;SDS011;6522;49.622;6.126;2022-12-07T03:35:05;38.80;;;25.77;;
12908;SDS011;6522;49.622;6.126;2022-12-07T03:37:57;43.28;;;24.75;;
12908;SDS011;6522;49.622;6.126;2022-12-07T03:41:00;41.05;;;25.00;;
12908;SDS011;6522;49.622;6.126;2022-12-07T03:43:44;37.30;;;24.90;;
12908;SDS011;6522;49.622;6.126;2022-12-07T03:46:36;39.80;;;24.85;;
12908;SDS011;6522;49.622;6.126;2022-12-07T03:49:28;40.90;;;19.12;;
12908;SDS011;6522;49.622;6.126;2022-12-07T03:55:11;41.50;;;21.58;;
12908;SDS011;6522;49.622;6.126;2022-12-07T03:57:55;42.38;;;25.77;;
12908;SDS011;6522;49.622;6.126;2022-12-07T04:00:41;41.85;;;23.90;;
12908;SDS011;6522;49.622;6.126;2022-12-07T04:03:27;36.78;;;23.80;;
12908;SDS011;6522;49.622;6.126;2022-12-07T04:06:14;34.72;;;19.80;;
12908;SDS011;6522;49.622;6.126;2022-12-07T04:09:00;40.20;;;25.55;;
12908;SDS011;6522;49.622;6.126;2022-12-07T04:11:47;37.60;;;22.98;;
12908;SDS011;6522;49.622;6.126;2022-12-07T04:14:33;41.28;;;23.73;;
12908;SDS011;6522;49.622;6.126;2022-12-07T04:17:20;36.70;;;23.40;;
12908;SDS011;6522;49.622;6.126;2022-12-07T04:20:07;37.85;;;22.27;;
12908;SDS011;6522;49.622;6.126;2022-12-07T04:22:54;36.38;;;22.73;;
12908;SDS011;6522;49.622;6.126;2022-12-07T04:25:41;35.47;;;21.02;;
12908;SDS011;6522;49.622;6.126;2022-12-07T04:28:27;40.28;;;22.23;;
12908;SDS011;6522;49.622;6.126;2022-12-07T04:31:14;36.03;;;17.95;;
12908;SDS011;6522;49.622;6.126;2022-12-07T04:34:01;35.60;;;17.65;;
12908;SDS011;6522;49.622;6.126;2022-12-07T04:36:48;37.90;;;20.35;;
12908;SDS011;6522;49.622;6.126;2022-12-07T04:39:34;37.38;;;21.87;;
12908;SDS011;6522;49.622;6.126;2022-12-07T04:42:21;40.90;;;23.02;;
12908;SDS011;6522;49.622;6.126;2022-12-07T04:45:08;33.20;;;22.45;;
12908;SDS011;6522;49.622;6.126;2022-12-07T04:47:55;38.70;;;23.77;;
12908;SDS011;6522;49.622;6.126;2022-12-07T04:50:41;33.90;;;22.05;;
12908;SDS011;6522;49.622;6.126;2022-12-07T04:53:28;40.42;;;24.02;;
12908;SDS011;6522;49.622;6.126;2022-12-07T04:56:15;37.47;;;21.98;;
12908;SDS011;6522;49.622;6.126;2022-12-07T04:59:02;40.38;;;22.50;;
12908;SDS011;6522;49.622;6.126;2022-12-07T05:01:48;37.40;;;21.92;;
12908;SDS011;6522;49.622;6.126;2022-12-07T05:04:35;36.33;;;21.98;;
12908;SDS011;6522;49.622;6.126;2022-12-07T05:07:22;39.50;;;22.90;;
12908;SDS011;6522;49.622;6.126;2022-12-07T05:10:09;44.95;;;25.37;;
12908;SDS011;6522;49.622;6.126;2022-12-07T05:12:56;38.45;;;22.25;;
12908;SDS011;6522;49.622;6.126;2022-12-07T05:15:42;40.67;;;22.67;;
12908;SDS011;6522;49.622;6.126;2022-12-07T05:18:29;39.38;;;22.23;;
12908;SDS011;6522;49.622;6.126;2022-12-07T05:21:16;38.42;;;22.05;;
12908;SDS011;6522;49.622;6.126;2022-12-07T05:24:03;38.65;;;21.15;;
12908;SDS011;6522;49.622;6.126;2022-12-07T05:26:50;44.80;;;23.40;;
12908;SDS011;6522;49.622;6.126;2022-12-07T05:29:36;45.97;;;23.50;;
12908;SDS011;6522;49.622;6.126;2022-12-07T05:32:23;41.03;;;22.60;;
12908;SDS011;6522;49.622;6.126;2022-12-07T05:35:10;41.37;;;22.67;;
12908;SDS011;6522;49.622;6.126;2022-12-07T05:37:57;38.67;;;22.17;;
12908;SDS011;6522;49.622;6.126;2022-12-07T05:40:43;43.47;;;21.70;;
12908;SDS011;6522;49.622;6.126;2022-12-07T05:43:30;42.08;;;22.92;;
12908;SDS011;6522;49.622;6.126;2022-12-07T05:46:17;44.65;;;21.20;;
12908;SDS011;6522;49.622;6.126;2022-12-07T05:49:03;43.85;;;22.33;;
12908;SDS011;6522;49.622;6.126;2022-12-07T05:51:50;48.80;;;25.52;;
12908;SDS011;6522;49.622;6.126;2022-12-07T05:54:37;41.60;;;21.65;;
12908;SDS011;6522;49.622;6.126;2022-12-07T05:57:24;41.00;;;24.20;;
12908;SDS011;6522;49.622;6.126;2022-12-07T06:00:10;46.10;;;22.75;;
12908;SDS011;6522;49.622;6.126;2022-12-07T06:02:58;42.92;;;21.15;;
12908;SDS011;6522;49.622;6.126;2022-12-07T06:05:44;37.55;;;21.55;;
12908;SDS011;6522;49.622;6.126;2022-12-07T06:08:31;46.08;;;24.12;;
12908;SDS011;6522;49.622;6.126;2022-12-07T06:11:18;37.92;;;18.73;;
12908;SDS011;6522;49.622;6.126;2022-12-07T06:14:23;39.30;;;19.90;;
12908;SDS011;6522;49.622;6.126;2022-12-07T06:17:10;43.17;;;20.75;;
12908;SDS011;6522;49.622;6.126;2022-12-07T06:19:56;39.22;;;21.55;;
12908;SDS011;6522;49.622;6.126;2022-12-07T06:22:43;44.85;;;21.62;;
12908;SDS011;6522;49.622;6.126;2022-12-07T06:25:30;45.10;;;21.52;;
12908;SDS011;6522;49.622;6.126;2022-12-07T06:28:17;41.17;;;21.00;;
12908;SDS011;6522;49.622;6.126;2022-12-07T06:31:04;40.22;;;18.73;;
12908;SDS011;6522;49.622;6.126;2022-12-07T06:33:50;31.75;;;16.52;;
12908;SDS011;6522;49.622;6.126;2022-12-07T06:36:37;36.85;;;19.25;;
12908;SDS011;6522;49.622;6.126;2022-12-07T06:39:24;36.00;;;20.05;;
12908;SDS011;6522;49.622;6.126;2022-12-07T06:42:10;36.28;;;19.05;;
12908;SDS011;6522;49.622;6.126;2022-12-07T06:44:57;38.08;;;21.85;;
12908;SDS011;6522;49.622;6.126;2022-12-07T06:47:44;39.67;;;20.88;;
12908;SDS011;6522;49.622;6.126;2022-12-07T06:50:31;42.35;;;23.40;;
12908;SDS011;6522;49.622;6.126;2022-12-07T06:53:17;45.58;;;24.75;;
12908;SDS011;6522;49.622;6.126;2022-12-07T06:56:04;39.03;;;22.80;;
12908;SDS011;6522;49.622;6.126;2022-12-07T06:58:51;33.55;;;20.85;;
12908;SDS011;6522;49.622;6.126;2022-12-07T07:01:38;34.90;;;20.27;;
12908;SDS011;6522;49.622;6.126;2022-12-07T07:04:24;38.38;;;21.10;;
12908;SDS011;6522;49.622;6.126;2022-12-07T07:07:11;40.70;;;21.30;;
12908;SDS011;6522;49.622;6.126;2022-12-07T07:09:58;38.35;;;20.12;;
12908;SDS011;6522;49.622;6.126;2022-12-07T07:12:45;43.35;;;19.65;;
12908;SDS011;6522;49.622;6.126;2022-12-07T07:15:32;41.03;;;20.20;;
12908;SDS011;6522;49.622;6.126;2022-12-07T07:18:18;39.72;;;21.42;;
12908;SDS011;6522;49.622;6.126;2022-12-07T07:21:05;35.90;;;21.00;;
12908;SDS011;6522;49.622;6.126;2022-12-07T07:23:51;40.22;;;22.13;;
12908;SDS011;6522;49.622;6.126;2022-12-07T07:26:38;43.10;;;25.20;;
12908;SDS011;6522;49.622;6.126;2022-12-07T07:29:25;41.63;;;22.20;;
12908;SDS011;6522;49.622;6.126;2022-12-07T07:32:12;31.52;;;17.83;;
12908;SDS011;6522;49.622;6.126;2022-12-07T07:34:59;35.13;;;20.30;;
12908;SDS011;6522;49.622;6.126;2022-12-07T07:37:45;37.97;;;21.08;;
12908;SDS011;6522;49.622;6.126;2022-12-07T07:40:32;39.72;;;20.15;;
12908;SDS011;6522;49.622;6.126;2022-12-07T07:43:19;33.17;;;20.48;;
12908;SDS011;6522;49.622;6.126;2022-12-07T07:46:06;37.00;;;23.02;;
12908;SDS011;6522;49.622;6.126;2022-12-07T07:48:52;33.75;;;19.15;;
12908;SDS011;6522;49.622;6.126;2022-12-07T07:51:39;29.83;;;18.45;;
12908;SDS011;6522;49.622;6.126;2022-12-07T07:54:25;31.55;;;17.55;;
12908;SDS011;6522;49.622;6.126;2022-12-07T07:57:12;31.77;;;19.15;;
12908;SDS011;6522;49.622;6.126;2022-12-07T07:59:59;30.33;;;18.73;;
12908;SDS011;6522;49.622;6.126;2022-12-07T08:02:45;28.10;;;17.45;;
12908;SDS011;6522;49.622;6.126;2022-12-07T08:05:32;23.05;;;15.52;;
12908;SDS011;6522;49.622;6.126;2022-12-07T08:08:19;21.90;;;15.60;;
12908;SDS011;6522;49.622;6.126;2022-12-07T08:11:06;28.05;;;15.90;;
12908;SDS011;6522;49.622;6.126;2022-12-07T08:13:52;27.23;;;17.17;;
12908;SDS011;6522;49.622;6.126;2022-12-07T08:16:39;24.42;;;15.23;;
12908;SDS011;6522;49.622;6.126;2022-12-07T08:19:26;29.83;;;16.25;;
12908;SDS011;6522;49.622;6.126;2022-12-07T08:22:13;25.85;;;16.75;;
12908;SDS011;6522;49.622;6.126;2022-12-07T08:25:00;23.33;;;15.32;;
12908;SDS011;6522;49.622;6.126;2022-12-07T08:27:46;18.70;;;14.10;;
12908;SDS011;6522;49.622;6.126;2022-12-07T08:30:33;18.23;;;12.45;;
12908;SDS011;6522;49.622;6.126;2022-12-07T08:33:20;20.55;;;13.73;;
12908;SDS011;6522;49.622;6.126;2022-12-07T08:36:08;17.70;;;12.48;;
12908;SDS011;6522;49.622;6.126;2022-12-07T08:38:54;16.48;;;9.48;;
12908;SDS011;6522;49.622;6.126;2022-12-07T08:41:41;14.18;;;9.88;;
12908;SDS011;6522;49.622;6.126;2022-12-07T08:44:28;12.90;;;8.60;;
12908;SDS011;6522;49.622;6.126;2022-12-07T08:47:15;12.90;;;9.18;;
12908;SDS011;6522;49.622;6.126;2022-12-07T08:50:02;13.20;;;9.00;;
12908;SDS011;6522;49.622;6.126;2022-12-07T08:52:50;13.13;;;8.75;;
12908;SDS011;6522;49.622;6.126;2022-12-07T08:55:35;12.32;;;8.95;;
12908;SDS011;6522;49.622;6.126;2022-12-07T08:58:22;15.18;;;8.77;;
12908;SDS011;6522;49.622;6.126;2022-12-07T09:01:09;9.68;;;8.23;;
12908;SDS011;6522;49.622;6.126;2022-12-07T09:03:55;9.75;;;8.10;;
12908;SDS011;6522;49.622;6.126;2022-12-07T09:06:42;9.73;;;8.38;;
12908;SDS011;6522;49.622;6.126;2022-12-07T09:09:28;10.07;;;8.40;;
12908;SDS011;6522;49.622;6.126;2022-12-07T09:12:15;10.13;;;8.00;;
12908;SDS011;6522;49.622;6.126;2022-12-07T09:15:02;8.60;;;7.12;;
12908;SDS011;6522;49.622;6.126;2022-12-07T09:17:48;11.25;;;7.68;;
12908;SDS011;6522;49.622;6.126;2022-12-07T09:20:35;9.98;;;7.68;;
12908;SDS011;6522;49.622;6.126;2022-12-07T09:23:22;12.23;;;7.90;;
12908;SDS011;6522;49.622;6.126;2022-12-07T09:26:09;9.02;;;7.15;;
12908;SDS011;6522;49.622;6.126;2022-12-07T09:28:55;12.15;;;8.13;;
12908;SDS011;6522;49.622;6.126;2022-12-07T09:31:42;13.65;;;9.25;;
12908;SDS011;6522;49.622;6.126;2022-12-07T09:34:32;9.30;;;8.43;;
12908;SDS011;6522;49.622;6.126;2022-12-07T09:37:15;12.85;;;11.85;;
12908;SDS011;6522;49.622;6.126;2022-12-07T09:40:03;15.80;;;14.75;;
12908;SDS011;6522;49.622;6.126;2022-12-07T09:42:50;17.85;;;16.70;;
12908;SDS011;6522;49.622;6.126;2022-12-07T09:45:36;18.42;;;17.33;;
12908;SDS011;6522;49.622;6.126;2022-12-07T09:48:25;18.67;;;17.60;;
12908;SDS011;6522;49.622;6.126;2022-12-07T09:51:22;18.27;;;17.08;;
12908;SDS011;6522;49.622;6.126;2022-12-07T09:54:09;18.35;;;17.15;;
12908;SDS011;6522;49.622;6.126;2022-12-07T09:56:55;19.05;;;17.70;;
12908;SDS011;6522;49.622;6.126;2022-12-07T09:59:42;18.02;;;16.92;;
12908;SDS011;6522;49.622;6.126;2022-12-07T10:02:36;14.10;;;13.10;;
12908;SDS011;6522;49.622;6.126;2022-12-07T10:05:44;18.83;;;17.77;;
12908;SDS011;6522;49.622;6.126;2022-12-07T10:08:09;16.35;;;15.35;;
12908;SDS011;6522;49.622;6.126;2022-12-07T10:10:55;14.98;;;13.70;;
12908;SDS011;6522;49.622;6.126;2022-12-07T10:13:42;12.27;;;11.18;;
12908;SDS011;6522;49.622;6.126;2022-12-07T10:16:35;13.55;;;12.25;;
12908;SDS011;6522;49.622;6.126;2022-12-07T10:19:25;12.73;;;11.48;;
12908;SDS011;6522;49.622;6.126;2022-12-07T10:22:14;10.55;;;9.45;;
12908;SDS011;6522;49.622;6.126;2022-12-07T10:25:07;11.45;;;10.35;;
12908;SDS011;6522;49.622;6.126;2022-12-07T10:27:57;8.60;;;7.70;;
12908;SDS011;6522;49.622;6.126;2022-12-07T10:30:56;9.88;;;9.18;;
12908;SDS011;6522;49.622;6.126;2022-12-07T10:33:49;10.32;;;9.35;;
12908;SDS011;6522;49.622;6.126;2022-12-07T10:36:38;10.05;;;9.05;;
12908;SDS011;6522;49.622;6.126;2022-12-07T10:39:24;9.27;;;8.38;;
12908;SDS011;6522;49.622;6.126;2022-12-07T10:42:22;10.82;;;8.70;;
12908;SDS011;6522;49.622;6.126;2022-12-07T10:45:09;8.73;;;7.82;;
12908;SDS011;6522;49.622;6.126;2022-12-07T10:50:51;10.10;;;8.60;;
12908;SDS011;6522;49.622;6.126;2022-12-07T10:53:44;9.73;;;7.50;;
12908;SDS011;6522;49.622;6.126;2022-12-07T11:02:30;7.30;;;6.50;;
12908;SDS011;6522;49.622;6.126;2022-12-07T11:05:21;10.13;;;9.23;;
12908;SDS011;6522;49.622;6.126;2022-12-07T11:10:54;10.10;;;8.73;;
12908;SDS011;6522;49.622;6.126;2022-12-07T11:13:56;9.60;;;8.60;;
12908;SDS011;6522;49.622;6.126;2022-12-07T11:19:49;8.43;;;7.72;;
12908;SDS011;6522;49.622;6.126;2022-12-07T11:22:36;9.88;;;8.85;;
12908;SDS011;6522;49.622;6.126;2022-12-07T11:34:32;11.63;;;10.73;;
12908;SDS011;6522;49.622;6.126;2022-12-07T11:37:18;13.02;;;12.13;;
12908;SDS011;6522;49.622;6.126;2022-12-07T11:40:03;13.35;;;12.48;;
12908;SDS011;6522;49.622;6.126;2022-12-07T11:45:52;14.20;;;13.30;;
12908;SDS011;6522;49.622;6.126;2022-12-07T11:48:46;14.55;;;13.85;;
12908;SDS011;6522;49.622;6.126;2022-12-07T11:51:33;16.37;;;15.55;;
12908;SDS011;6522;49.622;6.126;2022-12-07T11:54:21;16.40;;;15.60;;
12908;SDS011;6522;49.622;6.126;2022-12-07T11:57:09;16.08;;;14.90;;
12908;SDS011;6522;49.622;6.126;2022-12-07T11:59:56;14.98;;;14.27;;
12908;SDS011;6522;49.622;6.126;2022-12-07T12:02:47;10.93;;;10.23;;
12908;SDS011;6522;49.622;6.126;2022-12-07T12:05:30;15.15;;;14.35;;
12908;SDS011;6522;49.622;6.126;2022-12-07T12:08:18;14.05;;;13.35;;
12908;SDS011;6522;49.622;6.126;2022-12-07T12:11:08;13.82;;;13.13;;
12908;SDS011;6522;49.622;6.126;2022-12-07T12:17:10;13.50;;;12.80;;
12908;SDS011;6522;49.622;6.126;2022-12-07T12:23:01;13.00;;;11.98;;
12908;SDS011;6522;49.622;6.126;2022-12-07T12:25:48;12.02;;;11.40;;
12908;SDS011;6522;49.622;6.126;2022-12-07T12:28:50;11.80;;;11.10;;
12908;SDS011;6522;49.622;6.126;2022-12-07T12:31:39;12.57;;;11.63;;
12908;SDS011;6522;49.622;6.126;2022-12-07T12:34:31;11.52;;;10.63;;
12908;SDS011;6522;49.622;6.126;2022-12-07T12:43:39;11.02;;;10.32;;
12908;SDS011;6522;49.622;6.126;2022-12-07T12:58:21;10.00;;;9.30;;
12908;SDS011;6522;49.622;6.126;2022-12-07T13:00:40;9.07;;;8.57;;
12908;SDS011;6522;49.622;6.126;2022-12-07T13:03:27;8.80;;;6.10;;
12908;SDS011;6522;49.622;6.126;2022-12-07T13:06:18;10.52;;;9.50;;
12908;SDS011;6522;49.622;6.126;2022-12-07T13:09:04;9.15;;;8.65;;
12908;SDS011;6522;49.622;6.126;2022-12-07T13:11:55;9.85;;;9.02;;
12908;SDS011;6522;49.622;6.126;2022-12-07T13:29:18;18.17;;;12.25;;
12908;SDS011;6522;49.622;6.126;2022-12-07T13:32:04;17.33;;;11.88;;
12908;SDS011;6522;49.622;6.126;2022-12-07T13:34:51;14.98;;;11.10;;
12908;SDS011;6522;49.622;6.126;2022-12-07T13:37:38;17.98;;;10.77;;
12908;SDS011;6522;49.622;6.126;2022-12-07T13:40:25;17.00;;;11.27;;
12908;SDS011;6522;49.622;6.126;2022-12-07T13:43:13;16.02;;;10.55;;
12908;SDS011;6522;49.622;6.126;2022-12-07T13:45:58;12.82;;;10.35;;
12908;SDS011;6522;49.622;6.126;2022-12-07T13:48:46;16.42;;;11.27;;
12908;SDS011;6522;49.622;6.126;2022-12-07T13:51:34;16.20;;;9.93;;
12908;SDS011;6522;49.622;6.126;2022-12-07T13:54:19;19.30;;;11.57;;
12908;SDS011;6522;49.622;6.126;2022-12-07T13:57:06;13.70;;;10.43;;
12908;SDS011;6522;49.622;6.126;2022-12-07T13:59:53;12.05;;;10.85;;
12908;SDS011;6522;49.622;6.126;2022-12-07T14:02:54;12.27;;;11.05;;
12908;SDS011;6522;49.622;6.126;2022-12-07T14:05:27;13.77;;;11.25;;
12908;SDS011;6522;49.622;6.126;2022-12-07T14:11:00;13.50;;;12.25;;
12908;SDS011;6522;49.622;6.126;2022-12-07T14:13:57;13.10;;;12.18;;
12908;SDS011;6522;49.622;6.126;2022-12-07T14:16:43;14.07;;;12.95;;
12908;SDS011;6522;49.622;6.126;2022-12-07T14:19:46;14.10;;;13.00;;
12908;SDS011;6522;49.622;6.126;2022-12-07T14:22:36;14.32;;;13.02;;
12908;SDS011;6522;49.622;6.126;2022-12-07T14:25:22;11.70;;;10.60;;
12908;SDS011;6522;49.622;6.126;2022-12-07T14:28:09;13.10;;;12.00;;
12908;SDS011;6522;49.622;6.126;2022-12-07T14:30:55;13.85;;;12.70;;
12908;SDS011;6522;49.622;6.126;2022-12-07T14:33:42;14.95;;;14.05;;
12908;SDS011;6522;49.622;6.126;2022-12-07T14:36:28;14.60;;;13.70;;
12908;SDS011;6522;49.622;6.126;2022-12-07T14:39:15;15.45;;;14.40;;
12908;SDS011;6522;49.622;6.126;2022-12-07T14:42:02;15.98;;;14.63;;
12908;SDS011;6522;49.622;6.126;2022-12-07T14:44:48;15.30;;;14.15;;
12908;SDS011;6522;49.622;6.126;2022-12-07T14:47:35;13.80;;;12.90;;
12908;SDS011;6522;49.622;6.126;2022-12-07T14:50:22;12.68;;;11.73;;
12908;SDS011;6522;49.622;6.126;2022-12-07T14:53:16;10.90;;;10.20;;
12908;SDS011;6522;49.622;6.126;2022-12-07T14:56:02;9.73;;;8.90;;
12908;SDS011;6522;49.622;6.126;2022-12-07T14:58:49;7.50;;;6.80;;
12908;SDS011;6522;49.622;6.126;2022-12-07T15:01:36;9.10;;;8.50;;
12908;SDS011;6522;49.622;6.126;2022-12-07T15:04:22;8.90;;;8.30;;
12908;SDS011;6522;49.622;6.126;2022-12-07T15:07:14;8.95;;;8.23;;
12908;SDS011;6522;49.622;6.126;2022-12-07T15:09:56;9.82;;;8.27;;
12908;SDS011;6522;49.622;6.126;2022-12-07T15:12:42;12.27;;;8.70;;
12908;SDS011;6522;49.622;6.126;2022-12-07T15:15:29;12.93;;;9.85;;
12908;SDS011;6522;49.622;6.126;2022-12-07T15:18:16;11.60;;;8.40;;
12908;SDS011;6522;49.622;6.126;2022-12-07T15:21:02;12.20;;;8.82;;
12908;SDS011;6522;49.622;6.126;2022-12-07T15:23:49;12.27;;;9.63;;
12908;SDS011;6522;49.622;6.126;2022-12-07T15:26:36;13.53;;;8.20;;
12908;SDS011;6522;49.622;6.126;2022-12-07T15:29:22;12.20;;;8.80;;
12908;SDS011;6522;49.622;6.126;2022-12-07T15:32:09;14.90;;;10.10;;
12908;SDS011;6522;49.622;6.126;2022-12-07T15:34:56;13.98;;;8.73;;
12908;SDS011;6522;49.622;6.126;2022-12-07T15:37:42;16.33;;;9.90;;
12908;SDS011;6522;49.622;6.126;2022-12-07T15:40:30;12.98;;;8.20;;
12908;SDS011;6522;49.622;6.126;2022-12-07T15:43:16;12.05;;;9.70;;
12908;SDS011;6522;49.622;6.126;2022-12-07T15:46:22;15.48;;;9.48;;
12908;SDS011;6522;49.622;6.126;2022-12-07T15:49:10;14.85;;;9.35;;
12908;SDS011;6522;49.622;6.126;2022-12-07T15:51:56;17.62;;;11.25;;
12908;SDS011;6522;49.622;6.126;2022-12-07T15:54:42;16.20;;;11.30;;
12908;SDS011;6522;49.622;6.126;2022-12-07T15:57:29;13.40;;;11.60;;
12908;SDS011;6522;49.622;6.126;2022-12-07T16:00:15;16.98;;;11.25;;
12908;SDS011;6522;49.622;6.126;2022-12-07T16:03:02;16.08;;;10.35;;
12908;SDS011;6522;49.622;6.126;2022-12-07T16:05:51;16.25;;;11.70;;
12908;SDS011;6522;49.622;6.126;2022-12-07T16:08:41;17.02;;;11.00;;
12908;SDS011;6522;49.622;6.126;2022-12-07T16:11:25;14.52;;;10.27;;
12908;SDS011;6522;49.622;6.126;2022-12-07T16:14:11;15.48;;;10.38;;
12908;SDS011;6522;49.622;6.126;2022-12-07T16:16:58;15.38;;;10.10;;
12908;SDS011;6522;49.622;6.126;2022-12-07T16:19:45;15.15;;;10.13;;
12908;SDS011;6522;49.622;6.126;2022-12-07T16:22:31;17.42;;;12.23;;
12908;SDS011;6522;49.622;6.126;2022-12-07T16:25:18;21.42;;;10.70;;
12908;SDS011;6522;49.622;6.126;2022-12-07T16:28:05;18.90;;;12.60;;
12908;SDS011;6522;49.622;6.126;2022-12-07T16:30:59;13.52;;;10.88;;
12908;SDS011;6522;49.622;6.126;2022-12-07T16:33:39;16.27;;;12.70;;
12908;SDS011;6522;49.622;6.126;2022-12-07T16:36:26;17.92;;;10.27;;
12908;SDS011;6522;49.622;6.126;2022-12-07T16:39:13;12.63;;;10.30;;
12908;SDS011;6522;49.622;6.126;2022-12-07T16:42:00;14.45;;;10.88;;
12908;SDS011;6522;49.622;6.126;2022-12-07T16:44:46;12.77;;;10.20;;
12908;SDS011;6522;49.622;6.126;2022-12-07T16:47:33;16.90;;;11.32;;
12908;SDS011;6522;49.622;6.126;2022-12-07T16:50:20;16.27;;;11.65;;
12908;SDS011;6522;49.622;6.126;2022-12-07T16:53:07;15.23;;;12.18;;
12908;SDS011;6522;49.622;6.126;2022-12-07T16:55:53;15.88;;;12.43;;
12908;SDS011;6522;49.622;6.126;2022-12-07T16:58:41;14.82;;;11.48;;
12908;SDS011;6522;49.622;6.126;2022-12-07T17:01:27;19.00;;;11.50;;
12908;SDS011;6522;49.622;6.126;2022-12-07T17:04:14;22.42;;;13.52;;
12908;SDS011;6522;49.622;6.126;2022-12-07T17:07:01;19.55;;;13.20;;
12908;SDS011;6522;49.622;6.126;2022-12-07T17:09:47;18.80;;;13.45;;
12908;SDS011;6522;49.622;6.126;2022-12-07T17:12:34;19.35;;;13.18;;
12908;SDS011;6522;49.622;6.126;2022-12-07T17:15:21;18.00;;;11.98;;
12908;SDS011;6522;49.622;6.126;2022-12-07T17:18:07;22.98;;;13.25;;
12908;SDS011;6522;49.622;6.126;2022-12-07T17:20:54;17.15;;;12.65;;
12908;SDS011;6522;49.622;6.126;2022-12-07T17:23:41;21.30;;;12.25;;
12908;SDS011;6522;49.622;6.126;2022-12-07T17:26:28;22.15;;;13.40;;
12908;SDS011;6522;49.622;6.126;2022-12-07T17:29:15;19.75;;;12.82;;
12908;SDS011;6522;49.622;6.126;2022-12-07T17:32:01;16.70;;;11.73;;
12908;SDS011;6522;49.622;6.126;2022-12-07T17:34:48;20.12;;;13.77;;
12908;SDS011;6522;49.622;6.126;2022-12-07T17:37:35;20.17;;;13.95;;
12908;SDS011;6522;49.622;6.126;2022-12-07T17:40:21;22.27;;;14.60;;
12908;SDS011;6522;49.622;6.126;2022-12-07T17:43:08;21.58;;;15.00;;
12908;SDS011;6522;49.622;6.126;2022-12-07T17:45:55;25.77;;;14.87;;
12908;SDS011;6522;49.622;6.126;2022-12-07T17:48:41;18.00;;;14.10;;
12908;SDS011;6522;49.622;6.126;2022-12-07T17:51:28;19.25;;;13.38;;
12908;SDS011;6522;49.622;6.126;2022-12-07T17:54:33;21.05;;;14.55;;
12908;SDS011;6522;49.622;6.126;2022-12-07T17:57:20;23.62;;;14.82;;
12908;SDS011;6522;49.622;6.126;2022-12-07T18:00:07;21.95;;;15.20;;
12908;SDS011;6522;49.622;6.126;2022-12-07T18:02:53;18.62;;;14.85;;